sensor_id;sensor_type;location;lat;lon;timestamp;P1;durP1;ratioP1;P2;durP2;ratioP2
3779;SDS011;1905;52.482;9.802;2023-05-24T00:01:28;3.47;;;2.40;;
3779;SDS011;1905;52.482;9.802;2023-05-24T00:03:56;7.13;;;2.83;;
3779;SDS011;1905;52.482;9.802;2023-05-24T00:06:26;6.83;;;2.80;;
3779;SDS011;1905;52.482;9.802;2023-05-24T00:08:54;6.83;;;2.47;;
3779;SDS011;1905;52.482;9.802;2023-05-24T00:11:22;7.63;;;2.70;;
3779;SDS011;1905;52.482;9.802;2023-05-24T00:13:49;7.70;;;2.40;;
3779;SDS011;1905;52.482;9.802;2023-05-24T00:16:18;7.97;;;3.00;;
3779;SDS011;1905;52.482;9.802;2023-05-24T00:18:46;6.47;;;2.93;;
3779;SDS011;1905;52.482;9.802;2023-05-24T00:21:13;6.27;;;2.40;;
3779;SDS011;1905;52.482;9.802;2023-05-24T00:23:41;18.50;;;3.77;;
3779;SDS011;1905;52.482;9.802;2023-05-24T00:26:09;3.83;;;2.80;;
3779;SDS011;1905;52.482;9.802;2023-05-24T00:28:39;8.13;;;3.17;;
3779;SDS011;1905;52.482;9.802;2023-05-24T00:31:06;7.53;;;2.73;;
3779;SDS011;1905;52.482;9.802;2023-05-24T00:33:35;9.50;;;2.50;;
3779;SDS011;1905;52.482;9.802;2023-05-24T00:36:03;11.30;;;3.17;;
3779;SDS011;1905;52.482;9.802;2023-05-24T00:38:31;6.90;;;3.13;;
3779;SDS011;1905;52.482;9.802;2023-05-24T00:40:59;9.23;;;2.40;;
3779;SDS011;1905;52.482;9.802;2023-05-24T00:43:27;9.23;;;3.70;;
3779;SDS011;1905;52.482;9.802;2023-05-24T00:45:59;8.23;;;3.57;;
3779;SDS011;1905;52.482;9.802;2023-05-24T00:48:43;5.53;;;3.53;;
3779;SDS011;1905;52.482;9.802;2023-05-24T00:51:11;14.40;;;3.00;;
3779;SDS011;1905;52.482;9.802;2023-05-24T00:53:40;5.93;;;3.13;;
3779;SDS011;1905;52.482;9.802;2023-05-24T00:56:11;4.90;;;2.57;;
3779;SDS011;1905;52.482;9.802;2023-05-24T00:58:40;7.17;;;2.77;;
3779;SDS011;1905;52.482;9.802;2023-05-24T01:01:09;8.90;;;3.17;;
3779;SDS011;1905;52.482;9.802;2023-05-24T01:03:36;2.43;;;2.23;;
3779;SDS011;1905;52.482;9.802;2023-05-24T01:06:06;14.63;;;3.17;;
3779;SDS011;1905;52.482;9.802;2023-05-24T01:08:42;12.63;;;3.00;;
3779;SDS011;1905;52.482;9.802;2023-05-24T01:11:24;8.17;;;2.90;;
3779;SDS011;1905;52.482;9.802;2023-05-24T01:14:04;6.13;;;3.00;;
3779;SDS011;1905;52.482;9.802;2023-05-24T01:16:44;9.97;;;3.17;;
3779;SDS011;1905;52.482;9.802;2023-05-24T01:19:27;9.73;;;3.50;;
3779;SDS011;1905;52.482;9.802;2023-05-24T01:22:12;6.53;;;2.73;;
3779;SDS011;1905;52.482;9.802;2023-05-24T01:24:52;6.60;;;2.60;;
3779;SDS011;1905;52.482;9.802;2023-05-24T01:27:30;13.23;;;3.47;;
3779;SDS011;1905;52.482;9.802;2023-05-24T01:29:59;7.57;;;3.30;;
3779;SDS011;1905;52.482;9.802;2023-05-24T01:32:28;5.07;;;2.80;;
3779;SDS011;1905;52.482;9.802;2023-05-24T01:34:56;11.43;;;2.70;;
3779;SDS011;1905;52.482;9.802;2023-05-24T01:37:24;5.77;;;3.10;;
3779;SDS011;1905;52.482;9.802;2023-05-24T01:39:51;6.60;;;3.50;;
3779;SDS011;1905;52.482;9.802;2023-05-24T01:42:22;11.00;;;3.10;;
3779;SDS011;1905;52.482;9.802;2023-05-24T01:44:59;12.50;;;3.83;;
3779;SDS011;1905;52.482;9.802;2023-05-24T01:47:39;11.17;;;3.47;;
3779;SDS011;1905;52.482;9.802;2023-05-24T01:50:14;11.10;;;4.20;;
3779;SDS011;1905;52.482;9.802;2023-05-24T01:52:49;4.30;;;2.87;;
3779;SDS011;1905;52.482;9.802;2023-05-24T01:55:18;12.53;;;3.33;;
3779;SDS011;1905;52.482;9.802;2023-05-24T01:57:47;8.33;;;3.10;;
3779;SDS011;1905;52.482;9.802;2023-05-24T02:00:19;8.80;;;3.30;;
3779;SDS011;1905;52.482;9.802;2023-05-24T02:02:52;8.73;;;3.47;;
3779;SDS011;1905;52.482;9.802;2023-05-24T02:05:22;15.70;;;4.00;;
3779;SDS011;1905;52.482;9.802;2023-05-24T02:07:49;8.13;;;3.17;;
3779;SDS011;1905;52.482;9.802;2023-05-24T02:10:17;4.43;;;2.90;;
3779;SDS011;1905;52.482;9.802;2023-05-24T02:12:45;11.27;;;4.43;;
3779;SDS011;1905;52.482;9.802;2023-05-24T02:15:13;9.70;;;3.53;;
3779;SDS011;1905;52.482;9.802;2023-05-24T02:17:42;9.23;;;3.60;;
3779;SDS011;1905;52.482;9.802;2023-05-24T02:20:11;9.80;;;3.10;;
3779;SDS011;1905;52.482;9.802;2023-05-24T02:22:39;18.30;;;3.73;;
3779;SDS011;1905;52.482;9.802;2023-05-24T02:25:07;11.90;;;4.70;;
3779;SDS011;1905;52.482;9.802;2023-05-24T02:27:35;11.93;;;3.17;;
3779;SDS011;1905;52.482;9.802;2023-05-24T02:30:05;12.27;;;4.43;;
3779;SDS011;1905;52.482;9.802;2023-05-24T02:32:34;10.17;;;3.73;;
3779;SDS011;1905;52.482;9.802;2023-05-24T02:35:04;8.43;;;4.90;;
3779;SDS011;1905;52.482;9.802;2023-05-24T02:37:32;14.00;;;3.80;;
3779;SDS011;1905;52.482;9.802;2023-05-24T02:40:00;11.83;;;4.70;;
3779;SDS011;1905;52.482;9.802;2023-05-24T02:42:28;9.53;;;4.03;;
3779;SDS011;1905;52.482;9.802;2023-05-24T02:44:58;6.30;;;3.37;;
3779;SDS011;1905;52.482;9.802;2023-05-24T02:47:25;11.67;;;3.60;;
3779;SDS011;1905;52.482;9.802;2023-05-24T02:49:54;10.27;;;3.93;;
3779;SDS011;1905;52.482;9.802;2023-05-24T02:52:24;10.53;;;4.07;;
3779;SDS011;1905;52.482;9.802;2023-05-24T02:54:52;13.60;;;3.87;;
3779;SDS011;1905;52.482;9.802;2023-05-24T02:57:20;8.30;;;3.90;;
3779;SDS011;1905;52.482;9.802;2023-05-24T02:59:49;13.57;;;4.13;;
3779;SDS011;1905;52.482;9.802;2023-05-24T03:02:19;23.67;;;6.43;;
3779;SDS011;1905;52.482;9.802;2023-05-24T03:04:47;9.40;;;4.03;;
3779;SDS011;1905;52.482;9.802;2023-05-24T03:07:14;10.17;;;4.53;;
3779;SDS011;1905;52.482;9.802;2023-05-24T03:09:43;9.07;;;4.17;;
3779;SDS011;1905;52.482;9.802;2023-05-24T03:12:11;14.00;;;4.50;;
3779;SDS011;1905;52.482;9.802;2023-05-24T03:14:39;17.00;;;5.03;;
3779;SDS011;1905;52.482;9.802;2023-05-24T03:17:06;9.63;;;3.60;;
3779;SDS011;1905;52.482;9.802;2023-05-24T03:19:36;12.60;;;4.10;;
3779;SDS011;1905;52.482;9.802;2023-05-24T03:22:07;11.63;;;5.23;;
3779;SDS011;1905;52.482;9.802;2023-05-24T03:24:34;13.30;;;4.20;;
3779;SDS011;1905;52.482;9.802;2023-05-24T03:27:05;15.63;;;3.40;;
3779;SDS011;1905;52.482;9.802;2023-05-24T03:29:35;12.23;;;3.53;;
3779;SDS011;1905;52.482;9.802;2023-05-24T03:32:04;11.20;;;4.30;;
3779;SDS011;1905;52.482;9.802;2023-05-24T03:34:32;10.73;;;3.60;;
3779;SDS011;1905;52.482;9.802;2023-05-24T03:37:00;15.30;;;4.73;;
3779;SDS011;1905;52.482;9.802;2023-05-24T03:39:27;12.47;;;4.63;;
3779;SDS011;1905;52.482;9.802;2023-05-24T03:42:09;12.80;;;4.80;;
3779;SDS011;1905;52.482;9.802;2023-05-24T03:44:39;15.83;;;5.00;;
3779;SDS011;1905;52.482;9.802;2023-05-24T03:47:07;12.40;;;4.37;;
3779;SDS011;1905;52.482;9.802;2023-05-24T03:49:35;9.83;;;4.40;;
3779;SDS011;1905;52.482;9.802;2023-05-24T03:52:03;13.97;;;4.60;;
3779;SDS011;1905;52.482;9.802;2023-05-24T03:54:31;14.10;;;4.00;;
3779;SDS011;1905;52.482;9.802;2023-05-24T03:56:58;14.50;;;4.47;;
3779;SDS011;1905;52.482;9.802;2023-05-24T03:59:29;13.27;;;4.33;;
3779;SDS011;1905;52.482;9.802;2023-05-24T04:01:57;13.27;;;3.93;;
3779;SDS011;1905;52.482;9.802;2023-05-24T04:04:24;12.83;;;3.90;;
3779;SDS011;1905;52.482;9.802;2023-05-24T04:06:52;10.87;;;4.27;;
3779;SDS011;1905;52.482;9.802;2023-05-24T04:09:21;15.93;;;4.43;;
3779;SDS011;1905;52.482;9.802;2023-05-24T04:11:50;13.93;;;4.40;;
3779;SDS011;1905;52.482;9.802;2023-05-24T04:14:17;8.63;;;4.30;;
3779;SDS011;1905;52.482;9.802;2023-05-24T04:16:46;19.00;;;4.80;;
3779;SDS011;1905;52.482;9.802;2023-05-24T04:19:14;11.00;;;3.67;;
3779;SDS011;1905;52.482;9.802;2023-05-24T04:21:42;19.60;;;4.90;;
3779;SDS011;1905;52.482;9.802;2023-05-24T04:24:10;9.13;;;3.83;;
3779;SDS011;1905;52.482;9.802;2023-05-24T04:26:37;9.57;;;4.17;;
3779;SDS011;1905;52.482;9.802;2023-05-24T04:29:05;16.10;;;3.90;;
3779;SDS011;1905;52.482;9.802;2023-05-24T04:31:34;10.10;;;5.00;;
3779;SDS011;1905;52.482;9.802;2023-05-24T04:34:04;9.83;;;5.43;;
3779;SDS011;1905;52.482;9.802;2023-05-24T04:36:33;15.73;;;5.93;;
3779;SDS011;1905;52.482;9.802;2023-05-24T04:39:00;8.37;;;3.77;;
3779;SDS011;1905;52.482;9.802;2023-05-24T04:41:30;12.30;;;4.70;;
3779;SDS011;1905;52.482;9.802;2023-05-24T04:43:58;12.70;;;4.30;;
3779;SDS011;1905;52.482;9.802;2023-05-24T04:46:26;16.97;;;4.90;;
3779;SDS011;1905;52.482;9.802;2023-05-24T04:48:53;7.43;;;3.70;;
3779;SDS011;1905;52.482;9.802;2023-05-24T04:51:22;14.67;;;4.50;;
3779;SDS011;1905;52.482;9.802;2023-05-24T04:53:50;12.90;;;4.97;;
3779;SDS011;1905;52.482;9.802;2023-05-24T04:56:17;14.03;;;5.37;;
3779;SDS011;1905;52.482;9.802;2023-05-24T04:58:45;15.50;;;5.43;;
3779;SDS011;1905;52.482;9.802;2023-05-24T05:01:14;13.20;;;4.90;;
3779;SDS011;1905;52.482;9.802;2023-05-24T05:03:41;12.13;;;3.97;;
3779;SDS011;1905;52.482;9.802;2023-05-24T05:06:11;15.60;;;4.70;;
3779;SDS011;1905;52.482;9.802;2023-05-24T05:08:40;8.70;;;4.43;;
3779;SDS011;1905;52.482;9.802;2023-05-24T05:11:07;25.60;;;5.20;;
3779;SDS011;1905;52.482;9.802;2023-05-24T05:13:35;7.40;;;4.37;;
3779;SDS011;1905;52.482;9.802;2023-05-24T05:16:03;11.63;;;4.60;;
3779;SDS011;1905;52.482;9.802;2023-05-24T05:18:31;14.93;;;5.50;;
3779;SDS011;1905;52.482;9.802;2023-05-24T05:20:59;18.23;;;5.20;;
3779;SDS011;1905;52.482;9.802;2023-05-24T05:23:28;17.40;;;5.33;;
3779;SDS011;1905;52.482;9.802;2023-05-24T05:25:57;8.87;;;4.20;;
3779;SDS011;1905;52.482;9.802;2023-05-24T05:28:24;13.70;;;4.03;;
3779;SDS011;1905;52.482;9.802;2023-05-24T05:30:52;8.47;;;4.70;;
3779;SDS011;1905;52.482;9.802;2023-05-24T05:33:22;19.10;;;4.67;;
3779;SDS011;1905;52.482;9.802;2023-05-24T05:35:49;12.73;;;3.90;;
3779;SDS011;1905;52.482;9.802;2023-05-24T05:38:20;20.33;;;5.27;;
3779;SDS011;1905;52.482;9.802;2023-05-24T05:40:47;13.67;;;5.00;;
3779;SDS011;1905;52.482;9.802;2023-05-24T05:43:17;13.10;;;4.67;;
3779;SDS011;1905;52.482;9.802;2023-05-24T05:45:44;15.00;;;6.47;;
3779;SDS011;1905;52.482;9.802;2023-05-24T05:48:12;9.67;;;4.40;;
3779;SDS011;1905;52.482;9.802;2023-05-24T05:50:39;13.03;;;3.73;;
3779;SDS011;1905;52.482;9.802;2023-05-24T05:53:07;11.63;;;4.43;;
3779;SDS011;1905;52.482;9.802;2023-05-24T05:55:35;14.97;;;4.60;;
3779;SDS011;1905;52.482;9.802;2023-05-24T05:58:05;12.30;;;4.80;;
3779;SDS011;1905;52.482;9.802;2023-05-24T06:00:34;8.50;;;4.33;;
3779;SDS011;1905;52.482;9.802;2023-05-24T06:03:01;14.33;;;5.37;;
3779;SDS011;1905;52.482;9.802;2023-05-24T06:05:29;16.03;;;4.70;;
3779;SDS011;1905;52.482;9.802;2023-05-24T06:07:57;9.83;;;4.00;;
3779;SDS011;1905;52.482;9.802;2023-05-24T06:10:24;14.13;;;4.50;;
3779;SDS011;1905;52.482;9.802;2023-05-24T06:12:52;18.33;;;5.57;;
3779;SDS011;1905;52.482;9.802;2023-05-24T06:15:20;9.57;;;5.20;;
3779;SDS011;1905;52.482;9.802;2023-05-24T06:17:49;9.87;;;4.73;;
3779;SDS011;1905;52.482;9.802;2023-05-24T06:20:18;12.30;;;4.60;;
3779;SDS011;1905;52.482;9.802;2023-05-24T06:22:45;22.27;;;5.30;;
3779;SDS011;1905;52.482;9.802;2023-05-24T06:25:14;12.80;;;5.23;;
3779;SDS011;1905;52.482;9.802;2023-05-24T06:27:46;14.50;;;5.03;;
3779;SDS011;1905;52.482;9.802;2023-05-24T06:30:13;12.40;;;4.53;;
3779;SDS011;1905;52.482;9.802;2023-05-24T06:32:41;19.80;;;5.83;;
3779;SDS011;1905;52.482;9.802;2023-05-24T06:35:10;11.57;;;4.73;;
3779;SDS011;1905;52.482;9.802;2023-05-24T06:37:37;17.87;;;5.10;;
3779;SDS011;1905;52.482;9.802;2023-05-24T06:40:06;8.53;;;4.57;;
3779;SDS011;1905;52.482;9.802;2023-05-24T06:42:35;13.47;;;5.17;;
3779;SDS011;1905;52.482;9.802;2023-05-24T06:45:05;18.87;;;5.90;;
3779;SDS011;1905;52.482;9.802;2023-05-24T06:47:33;15.40;;;4.30;;
3779;SDS011;1905;52.482;9.802;2023-05-24T06:50:02;19.13;;;5.10;;
3779;SDS011;1905;52.482;9.802;2023-05-24T06:52:31;8.90;;;4.43;;
3779;SDS011;1905;52.482;9.802;2023-05-24T06:54:59;10.20;;;4.60;;
3779;SDS011;1905;52.482;9.802;2023-05-24T06:57:26;6.23;;;3.43;;
3779;SDS011;1905;52.482;9.802;2023-05-24T06:59:54;16.33;;;4.70;;
3779;SDS011;1905;52.482;9.802;2023-05-24T07:02:22;12.03;;;4.13;;
3779;SDS011;1905;52.482;9.802;2023-05-24T07:04:52;9.90;;;4.07;;
3779;SDS011;1905;52.482;9.802;2023-05-24T07:07:20;6.97;;;4.10;;
3779;SDS011;1905;52.482;9.802;2023-05-24T07:09:49;11.90;;;4.30;;
3779;SDS011;1905;52.482;9.802;2023-05-24T07:12:17;8.07;;;3.90;;
3779;SDS011;1905;52.482;9.802;2023-05-24T07:14:47;14.63;;;3.90;;
3779;SDS011;1905;52.482;9.802;2023-05-24T07:17:14;13.70;;;4.30;;
3779;SDS011;1905;52.482;9.802;2023-05-24T07:19:42;11.80;;;3.47;;
3779;SDS011;1905;52.482;9.802;2023-05-24T07:22:09;18.77;;;3.87;;
3779;SDS011;1905;52.482;9.802;2023-05-24T07:24:37;12.80;;;4.43;;
3779;SDS011;1905;52.482;9.802;2023-05-24T07:27:06;8.43;;;3.43;;
3779;SDS011;1905;52.482;9.802;2023-05-24T07:29:34;13.67;;;3.77;;
3779;SDS011;1905;52.482;9.802;2023-05-24T07:32:02;8.07;;;4.30;;
3779;SDS011;1905;52.482;9.802;2023-05-24T07:34:30;14.40;;;4.13;;
3779;SDS011;1905;52.482;9.802;2023-05-24T07:36:57;16.63;;;5.10;;
3779;SDS011;1905;52.482;9.802;2023-05-24T07:39:25;12.80;;;3.87;;
3779;SDS011;1905;52.482;9.802;2023-05-24T07:41:53;8.23;;;3.37;;
3779;SDS011;1905;52.482;9.802;2023-05-24T07:44:22;6.67;;;3.10;;
3779;SDS011;1905;52.482;9.802;2023-05-24T07:46:50;14.43;;;4.10;;
3779;SDS011;1905;52.482;9.802;2023-05-24T07:49:18;10.93;;;3.77;;
3779;SDS011;1905;52.482;9.802;2023-05-24T07:51:45;13.63;;;4.73;;
3779;SDS011;1905;52.482;9.802;2023-05-24T07:54:14;9.80;;;3.73;;
3779;SDS011;1905;52.482;9.802;2023-05-24T07:56:42;10.40;;;3.60;;
3779;SDS011;1905;52.482;9.802;2023-05-24T07:59:09;11.23;;;4.43;;
3779;SDS011;1905;52.482;9.802;2023-05-24T08:01:38;9.60;;;4.40;;
3779;SDS011;1905;52.482;9.802;2023-05-24T08:04:06;9.13;;;4.20;;
3779;SDS011;1905;52.482;9.802;2023-05-24T08:06:35;16.90;;;5.97;;
3779;SDS011;1905;52.482;9.802;2023-05-24T08:09:03;9.00;;;3.77;;
3779;SDS011;1905;52.482;9.802;2023-05-24T08:11:31;10.50;;;4.60;;
3779;SDS011;1905;52.482;9.802;2023-05-24T08:13:58;12.80;;;5.40;;
3779;SDS011;1905;52.482;9.802;2023-05-24T08:16:26;9.47;;;4.00;;
3779;SDS011;1905;52.482;9.802;2023-05-24T08:18:55;8.53;;;3.80;;
3779;SDS011;1905;52.482;9.802;2023-05-24T08:21:23;8.60;;;4.00;;
3779;SDS011;1905;52.482;9.802;2023-05-24T08:23:50;8.67;;;4.13;;
3779;SDS011;1905;52.482;9.802;2023-05-24T08:26:18;11.40;;;4.90;;
3779;SDS011;1905;52.482;9.802;2023-05-24T08:28:46;12.40;;;4.83;;
3779;SDS011;1905;52.482;9.802;2023-05-24T08:31:15;5.70;;;4.20;;
3779;SDS011;1905;52.482;9.802;2023-05-24T08:33:43;9.03;;;5.17;;
3779;SDS011;1905;52.482;9.802;2023-05-24T08:36:16;10.43;;;4.43;;
3779;SDS011;1905;52.482;9.802;2023-05-24T08:38:44;15.37;;;4.67;;
3779;SDS011;1905;52.482;9.802;2023-05-24T08:41:12;5.70;;;4.43;;
3779;SDS011;1905;52.482;9.802;2023-05-24T08:43:40;11.67;;;5.30;;
3779;SDS011;1905;52.482;9.802;2023-05-24T08:46:08;12.70;;;5.10;;
3779;SDS011;1905;52.482;9.802;2023-05-24T08:48:40;13.30;;;5.60;;
3779;SDS011;1905;52.482;9.802;2023-05-24T08:51:12;17.03;;;5.50;;
3779;SDS011;1905;52.482;9.802;2023-05-24T08:53:42;12.13;;;4.70;;
3779;SDS011;1905;52.482;9.802;2023-05-24T08:56:13;19.53;;;5.40;;
3779;SDS011;1905;52.482;9.802;2023-05-24T08:58:43;13.57;;;5.40;;
3779;SDS011;1905;52.482;9.802;2023-05-24T09:01:12;19.67;;;6.23;;
3779;SDS011;1905;52.482;9.802;2023-05-24T09:03:41;10.40;;;4.80;;
3779;SDS011;1905;52.482;9.802;2023-05-24T09:06:10;8.70;;;4.30;;
3779;SDS011;1905;52.482;9.802;2023-05-24T09:08:43;8.23;;;4.60;;
3779;SDS011;1905;52.482;9.802;2023-05-24T09:11:11;8.73;;;4.93;;
3779;SDS011;1905;52.482;9.802;2023-05-24T09:13:41;8.10;;;4.33;;
3779;SDS011;1905;52.482;9.802;2023-05-24T09:16:11;13.37;;;4.60;;
3779;SDS011;1905;52.482;9.802;2023-05-24T09:18:40;10.87;;;5.93;;
3779;SDS011;1905;52.482;9.802;2023-05-24T09:21:09;17.00;;;5.50;;
3779;SDS011;1905;52.482;9.802;2023-05-24T09:23:36;11.83;;;4.10;;
3779;SDS011;1905;52.482;9.802;2023-05-24T09:26:06;11.97;;;5.83;;
3779;SDS011;1905;52.482;9.802;2023-05-24T09:28:35;11.87;;;4.53;;
3779;SDS011;1905;52.482;9.802;2023-05-24T09:31:04;19.23;;;5.20;;
3779;SDS011;1905;52.482;9.802;2023-05-24T09:33:33;8.30;;;4.00;;
3779;SDS011;1905;52.482;9.802;2023-05-24T09:36:02;13.40;;;5.60;;
3779;SDS011;1905;52.482;9.802;2023-05-24T09:38:31;8.93;;;4.70;;
3779;SDS011;1905;52.482;9.802;2023-05-24T09:41:01;12.90;;;4.90;;
3779;SDS011;1905;52.482;9.802;2023-05-24T09:43:32;9.47;;;5.27;;
3779;SDS011;1905;52.482;9.802;2023-05-24T09:46:01;14.27;;;5.07;;
3779;SDS011;1905;52.482;9.802;2023-05-24T09:48:30;7.53;;;4.43;;
3779;SDS011;1905;52.482;9.802;2023-05-24T09:50:59;9.13;;;4.90;;
3779;SDS011;1905;52.482;9.802;2023-05-24T09:53:30;8.23;;;3.80;;
3779;SDS011;1905;52.482;9.802;2023-05-24T09:55:59;12.70;;;4.47;;
3779;SDS011;1905;52.482;9.802;2023-05-24T09:58:31;8.27;;;4.33;;
3779;SDS011;1905;52.482;9.802;2023-05-24T10:01:03;7.20;;;4.27;;
3779;SDS011;1905;52.482;9.802;2023-05-24T10:03:32;9.50;;;4.40;;
3779;SDS011;1905;52.482;9.802;2023-05-24T10:06:00;9.03;;;5.07;;
3779;SDS011;1905;52.482;9.802;2023-05-24T10:08:30;16.10;;;5.10;;
3779;SDS011;1905;52.482;9.802;2023-05-24T10:11:00;14.83;;;4.50;;
3779;SDS011;1905;52.482;9.802;2023-05-24T10:13:28;7.93;;;5.23;;
3779;SDS011;1905;52.482;9.802;2023-05-24T10:15:58;12.53;;;5.20;;
3779;SDS011;1905;52.482;9.802;2023-05-24T10:18:26;8.47;;;4.80;;
3779;SDS011;1905;52.482;9.802;2023-05-24T10:20:53;12.23;;;5.00;;
3779;SDS011;1905;52.482;9.802;2023-05-24T10:23:23;12.47;;;4.60;;
3779;SDS011;1905;52.482;9.802;2023-05-24T10:25:59;14.47;;;5.40;;
3779;SDS011;1905;52.482;9.802;2023-05-24T10:28:31;9.40;;;5.33;;
3779;SDS011;1905;52.482;9.802;2023-05-24T10:31:04;11.43;;;5.27;;
3779;SDS011;1905;52.482;9.802;2023-05-24T10:33:36;13.30;;;6.13;;
3779;SDS011;1905;52.482;9.802;2023-05-24T10:36:05;15.57;;;5.77;;
3779;SDS011;1905;52.482;9.802;2023-05-24T10:38:36;16.17;;;6.13;;
3779;SDS011;1905;52.482;9.802;2023-05-24T10:41:05;15.77;;;5.50;;
3779;SDS011;1905;52.482;9.802;2023-05-24T10:43:33;11.77;;;5.20;;
3779;SDS011;1905;52.482;9.802;2023-05-24T10:46:03;8.67;;;5.07;;
3779;SDS011;1905;52.482;9.802;2023-05-24T10:48:35;10.97;;;5.27;;
3779;SDS011;1905;52.482;9.802;2023-05-24T10:54:09;14.10;;;5.60;;
3779;SDS011;1905;52.482;9.802;2023-05-24T10:56:45;9.60;;;5.60;;
3779;SDS011;1905;52.482;9.802;2023-05-24T10:59:21;9.17;;;5.50;;
3779;SDS011;1905;52.482;9.802;2023-05-24T11:02:01;21.07;;;4.47;;
3779;SDS011;1905;52.482;9.802;2023-05-24T11:04:30;10.07;;;5.30;;
3779;SDS011;1905;52.482;9.802;2023-05-24T11:07:00;11.00;;;5.13;;
3779;SDS011;1905;52.482;9.802;2023-05-24T11:09:30;17.23;;;5.73;;
3779;SDS011;1905;52.482;9.802;2023-05-24T11:12:01;10.30;;;5.63;;
3779;SDS011;1905;52.482;9.802;2023-05-24T11:14:33;15.90;;;5.97;;
3779;SDS011;1905;52.482;9.802;2023-05-24T11:17:05;10.97;;;5.27;;
3779;SDS011;1905;52.482;9.802;2023-05-24T11:19:33;10.67;;;5.90;;
3779;SDS011;1905;52.482;9.802;2023-05-24T11:22:03;13.57;;;5.93;;
3779;SDS011;1905;52.482;9.802;2023-05-24T11:24:33;12.10;;;5.60;;
3779;SDS011;1905;52.482;9.802;2023-05-24T11:27:01;11.43;;;5.53;;
3779;SDS011;1905;52.482;9.802;2023-05-24T11:29:29;11.00;;;5.20;;
3779;SDS011;1905;52.482;9.802;2023-05-24T11:31:58;14.97;;;5.33;;
3779;SDS011;1905;52.482;9.802;2023-05-24T11:34:31;8.83;;;5.17;;
3779;SDS011;1905;52.482;9.802;2023-05-24T11:37:00;11.20;;;4.70;;
3779;SDS011;1905;52.482;9.802;2023-05-24T11:39:30;15.97;;;5.77;;
3779;SDS011;1905;52.482;9.802;2023-05-24T11:41:59;9.47;;;4.87;;
3779;SDS011;1905;52.482;9.802;2023-05-24T11:44:28;19.37;;;5.50;;
3779;SDS011;1905;52.482;9.802;2023-05-24T11:46:57;12.00;;;5.23;;
3779;SDS011;1905;52.482;9.802;2023-05-24T11:49:26;7.43;;;5.70;;
3779;SDS011;1905;52.482;9.802;2023-05-24T11:51:56;9.50;;;4.83;;
3779;SDS011;1905;52.482;9.802;2023-05-24T11:54:25;7.37;;;4.30;;
3779;SDS011;1905;52.482;9.802;2023-05-24T11:56:54;16.10;;;5.30;;
3779;SDS011;1905;52.482;9.802;2023-05-24T11:59:22;10.77;;;4.97;;
3779;SDS011;1905;52.482;9.802;2023-05-24T12:01:56;19.97;;;5.20;;
3779;SDS011;1905;52.482;9.802;2023-05-24T12:04:25;15.37;;;5.23;;
3779;SDS011;1905;52.482;9.802;2023-05-24T12:06:53;11.50;;;4.53;;
3779;SDS011;1905;52.482;9.802;2023-05-24T12:09:22;12.47;;;5.80;;
3779;SDS011;1905;52.482;9.802;2023-05-24T12:11:50;9.50;;;4.90;;
3779;SDS011;1905;52.482;9.802;2023-05-24T12:14:20;16.17;;;5.30;;
3779;SDS011;1905;52.482;9.802;2023-05-24T12:16:52;10.90;;;6.00;;
3779;SDS011;1905;52.482;9.802;2023-05-24T12:19:21;8.77;;;5.77;;
3779;SDS011;1905;52.482;9.802;2023-05-24T12:21:55;10.77;;;5.03;;
3779;SDS011;1905;52.482;9.802;2023-05-24T12:24:25;11.50;;;5.30;;
3779;SDS011;1905;52.482;9.802;2023-05-24T12:26:56;10.43;;;5.23;;
3779;SDS011;1905;52.482;9.802;2023-05-24T12:29:26;14.20;;;5.17;;
3779;SDS011;1905;52.482;9.802;2023-05-24T12:31:53;14.03;;;5.17;;
3779;SDS011;1905;52.482;9.802;2023-05-24T12:34:21;10.00;;;4.60;;
3779;SDS011;1905;52.482;9.802;2023-05-24T12:36:51;10.23;;;4.67;;
3779;SDS011;1905;52.482;9.802;2023-05-24T12:39:20;10.30;;;5.13;;
3779;SDS011;1905;52.482;9.802;2023-05-24T12:41:50;9.47;;;4.73;;
3779;SDS011;1905;52.482;9.802;2023-05-24T12:44:22;12.77;;;5.53;;
3779;SDS011;1905;52.482;9.802;2023-05-24T12:46:51;8.20;;;4.07;;
3779;SDS011;1905;52.482;9.802;2023-05-24T12:49:19;12.87;;;5.23;;
3779;SDS011;1905;52.482;9.802;2023-05-24T12:51:48;15.30;;;4.60;;
3779;SDS011;1905;52.482;9.802;2023-05-24T12:54:16;14.40;;;5.27;;
3779;SDS011;1905;52.482;9.802;2023-05-24T12:56:45;15.03;;;5.30;;
3779;SDS011;1905;52.482;9.802;2023-05-24T12:59:14;9.10;;;4.20;;
3779;SDS011;1905;52.482;9.802;2023-05-24T13:01:41;11.00;;;4.40;;
3779;SDS011;1905;52.482;9.802;2023-05-24T13:04:12;14.57;;;5.10;;
3779;SDS011;1905;52.482;9.802;2023-05-24T13:06:39;5.70;;;4.10;;
3779;SDS011;1905;52.482;9.802;2023-05-24T13:09:07;6.87;;;4.57;;
3779;SDS011;1905;52.482;9.802;2023-05-24T13:11:35;8.50;;;3.60;;
3779;SDS011;1905;52.482;9.802;2023-05-24T13:14:03;11.27;;;4.13;;
3779;SDS011;1905;52.482;9.802;2023-05-24T13:16:35;9.27;;;3.93;;
3779;SDS011;1905;52.482;9.802;2023-05-24T13:19:02;9.77;;;3.93;;
3779;SDS011;1905;52.482;9.802;2023-05-24T13:21:30;8.10;;;4.17;;
3779;SDS011;1905;52.482;9.802;2023-05-24T13:23:57;5.60;;;3.67;;
3779;SDS011;1905;52.482;9.802;2023-05-24T13:26:25;7.53;;;3.90;;
3779;SDS011;1905;52.482;9.802;2023-05-24T13:28:53;4.03;;;2.90;;
3779;SDS011;1905;52.482;9.802;2023-05-24T13:31:23;7.33;;;4.30;;
3779;SDS011;1905;52.482;9.802;2023-05-24T13:33:53;4.80;;;4.00;;
3779;SDS011;1905;52.482;9.802;2023-05-24T13:36:21;11.97;;;3.80;;
3779;SDS011;1905;52.482;9.802;2023-05-24T13:38:49;7.90;;;3.67;;
3779;SDS011;1905;52.482;9.802;2023-05-24T13:41:37;10.07;;;3.53;;
3779;SDS011;1905;52.482;9.802;2023-05-24T13:44:04;6.73;;;3.33;;
3779;SDS011;1905;52.482;9.802;2023-05-24T13:46:36;7.90;;;3.07;;
3779;SDS011;1905;52.482;9.802;2023-05-24T13:49:06;4.60;;;2.93;;
3779;SDS011;1905;52.482;9.802;2023-05-24T13:51:34;7.07;;;3.70;;
3779;SDS011;1905;52.482;9.802;2023-05-24T13:54:02;6.97;;;4.73;;
3779;SDS011;1905;52.482;9.802;2023-05-24T13:56:32;9.40;;;3.50;;
3779;SDS011;1905;52.482;9.802;2023-05-24T13:59:00;8.27;;;4.20;;
3779;SDS011;1905;52.482;9.802;2023-05-24T14:01:29;7.43;;;3.87;;
3779;SDS011;1905;52.482;9.802;2023-05-24T14:03:58;7.63;;;4.40;;
3779;SDS011;1905;52.482;9.802;2023-05-24T14:06:28;11.50;;;4.30;;
3779;SDS011;1905;52.482;9.802;2023-05-24T14:08:56;9.70;;;4.50;;
3779;SDS011;1905;52.482;9.802;2023-05-24T14:11:24;5.60;;;4.17;;
3779;SDS011;1905;52.482;9.802;2023-05-24T14:13:52;6.70;;;3.50;;
3779;SDS011;1905;52.482;9.802;2023-05-24T14:16:40;6.50;;;3.53;;
3779;SDS011;1905;52.482;9.802;2023-05-24T14:19:08;11.27;;;3.70;;
3779;SDS011;1905;52.482;9.802;2023-05-24T14:21:37;9.03;;;4.67;;
3779;SDS011;1905;52.482;9.802;2023-05-24T14:24:06;7.93;;;4.43;;
3779;SDS011;1905;52.482;9.802;2023-05-24T14:26:34;6.20;;;4.37;;
3779;SDS011;1905;52.482;9.802;2023-05-24T14:29:02;16.03;;;5.40;;
3779;SDS011;1905;52.482;9.802;2023-05-24T14:31:30;6.73;;;3.67;;
3779;SDS011;1905;52.482;9.802;2023-05-24T14:33:58;10.00;;;4.20;;
3779;SDS011;1905;52.482;9.802;2023-05-24T14:36:26;5.50;;;3.70;;
3779;SDS011;1905;52.482;9.802;2023-05-24T14:38:55;9.60;;;4.63;;
3779;SDS011;1905;52.482;9.802;2023-05-24T14:41:22;12.97;;;4.17;;
3779;SDS011;1905;52.482;9.802;2023-05-24T14:43:50;9.10;;;4.20;;
3779;SDS011;1905;52.482;9.802;2023-05-24T14:46:18;7.87;;;4.63;;
3779;SDS011;1905;52.482;9.802;2023-05-24T14:48:45;12.83;;;4.90;;
3779;SDS011;1905;52.482;9.802;2023-05-24T14:51:13;7.07;;;4.23;;
3779;SDS011;1905;52.482;9.802;2023-05-24T14:53:40;9.13;;;4.53;;
3779;SDS011;1905;52.482;9.802;2023-05-24T14:56:09;10.30;;;4.93;;
3779;SDS011;1905;52.482;9.802;2023-05-24T14:58:40;12.63;;;4.50;;
3779;SDS011;1905;52.482;9.802;2023-05-24T15:01:08;8.30;;;5.40;;
3779;SDS011;1905;52.482;9.802;2023-05-24T15:03:35;7.03;;;5.33;;
3779;SDS011;1905;52.482;9.802;2023-05-24T15:06:04;12.93;;;5.70;;
3779;SDS011;1905;52.482;9.802;2023-05-24T15:08:32;8.57;;;5.77;;
3779;SDS011;1905;52.482;9.802;2023-05-24T15:11:00;17.23;;;6.00;;
3779;SDS011;1905;52.482;9.802;2023-05-24T15:13:29;9.40;;;5.90;;
3779;SDS011;1905;52.482;9.802;2023-05-24T15:15:57;11.47;;;6.13;;
3779;SDS011;1905;52.482;9.802;2023-05-24T15:18:25;8.93;;;5.77;;
3779;SDS011;1905;52.482;9.802;2023-05-24T15:20:54;9.20;;;6.63;;
3779;SDS011;1905;52.482;9.802;2023-05-24T15:23:23;18.00;;;6.53;;